Terminal Aerodrome Forecast
Issued by NWS Chicago, IL

Home | Current Version | Previous Version | Graphics & Text | Print | Product List | Glossary On
Versions: 1 2 3 4 5 6 7 8 9 10 11 12 13 14 15 16 17 18 19 20 21 22 23 24
000
FTUS43 KLOT 121732
TAFRFD
TAF
KRFD 121732Z 1218/1318 31012KT P6SM SCT035
     FM122200 31008KT P6SM OVC100
     FM130400 25006KT P6SM OVC060
     FM130800 16008KT P6SM BKN050
     FM131100 16010KT P6SM BKN060
     FM131600 23012G18KT P6SM SCT030 OVC050=

USA.gov is the U.S. government's official web portal to all federal, state and local government web resources and services.